Aviation Digital Data Service (ADDS)

Output produced by METARs form (1130 UTC 25 June 2019)
found at http://www.aviationweather.gov/metar/data/
 
METAR text: VOMD 251100Z 28007KT 7000 FEW020 FEW025TCU BKN100 38/21 Q1004 NOSIG
Conditions at: VOMD (MADURAI , IN) observed 1100 UTC 25 June 2019
Temperature: 38.0°C (100°F)
Dewpoint: 21.0°C (70°F) [RH = 38%]
Pressure (altimeter): 29.65 inches Hg (1004.0 mb)
Winds: from the W (280 degrees) at 8 MPH (7 knots; 3.6 m/s)
Visibility: 4 miles ( 7 km)
Ceiling: 10000 feet AGL
Clouds: few clouds at 2000 feet AGL
few clouds at 2500 feet AGL
broken clouds at 10000 feet AGL
Weather: no significant weather observed at this time

METAR text: VOMD 251030Z 29003KT 7000 FEW020 FEW025TCU BKN100 39/21 Q1004 NOSIG
Conditions at: VOMD (MADURAI , IN) observed 1030 UTC 25 June 2019
Temperature: 39.0°C (102°F)
Dewpoint: 21.0°C (70°F) [RH = 36%]
Pressure (altimeter): 29.65 inches Hg (1004.0 mb)
Winds: from the WNW (290 degrees) at 3 MPH (3 knots; 1.5 m/s)
Visibility: 4 miles ( 7 km)
Ceiling: 10000 feet AGL
Clouds: few clouds at 2000 feet AGL
few clouds at 2500 feet AGL
broken clouds at 10000 feet AGL
Weather: no significant weather observed at this time

METAR text: VOMD 251000Z 26009KT 7000 FEW020 FEW025TCU SCT100 40/21 Q1004 NOSIG
Conditions at: VOMD (MADURAI , IN) observed 1000 UTC 25 June 2019
Temperature: 40.0°C (104°F)
Dewpoint: 21.0°C (70°F) [RH = 34%]
Pressure (altimeter): 29.65 inches Hg (1004.0 mb)
Winds: from the W (260 degrees) at 10 MPH (9 knots; 4.6 m/s)
Visibility: 4 miles ( 7 km)
Ceiling: at least 12,000 feet AGL
Clouds: few clouds at 2000 feet AGL
few clouds at 2500 feet AGL
scattered clouds at 10000 feet AGL
Weather: no significant weather observed at this time

METAR text: VOMD 250930Z 35003KT 7000 FEW020 FEW025TCU SCT100 41/21 Q1004 NOSIG
Conditions at: VOMD (MADURAI , IN) observed 0930 UTC 25 June 2019
Temperature: 41.0°C (106°F)
Dewpoint: 21.0°C (70°F) [RH = 32%]
Pressure (altimeter): 29.65 inches Hg (1004.0 mb)
Winds: from the N (350 degrees) at 3 MPH (3 knots; 1.5 m/s)
Visibility: 4 miles ( 7 km)
Ceiling: at least 12,000 feet AGL
Clouds: few clouds at 2000 feet AGL
few clouds at 2500 feet AGL
scattered clouds at 10000 feet AGL
Weather: no significant weather observed at this time

METAR text: VOMD 250900Z 01002KT 7000 FEW020 FEW025TCU 40/21 Q1004 NOSIG
Conditions at: VOMD (MADURAI , IN) observed 0900 UTC 25 June 2019
Temperature: 40.0°C (104°F)
Dewpoint: 21.0°C (70°F) [RH = 34%]
Pressure (altimeter): 29.65 inches Hg (1004.0 mb)
Winds: from the N (10 degrees) at 2 MPH (2 knots; 1.0 m/s)
Visibility: 4 miles ( 7 km)
Ceiling: at least 12,000 feet AGL
Clouds: few clouds at 2000 feet AGL
few clouds at 2500 feet AGL
Weather: no significant weather observed at this time

METAR text: VOMD 250830Z 00000KT 7000 FEW020 FEW025TCU 40/21 Q1005 NOSIG
Conditions at: VOMD (MADURAI , IN) observed 0830 UTC 25 June 2019
Temperature: 40.0°C (104°F)
Dewpoint: 21.0°C (70°F) [RH = 34%]
Pressure (altimeter): 29.68 inches Hg (1005.0 mb)
Winds: calm
Visibility: 4 miles ( 7 km)
Ceiling: at least 12,000 feet AGL
Clouds: few clouds at 2000 feet AGL
few clouds at 2500 feet AGL
Weather: no significant weather observed at this time

METAR text: VOMD 250800Z 36005KT 6000 SCT020 40/21 Q1005 NOSIG
Conditions at: VOMD (MADURAI , IN) observed 0800 UTC 25 June 2019
Temperature: 40.0°C (104°F)
Dewpoint: 21.0°C (70°F) [RH = 34%]
Pressure (altimeter): 29.68 inches Hg (1005.0 mb)
Winds: from the N (360 degrees) at 6 MPH (5 knots; 2.6 m/s)
Visibility: 4 miles ( 6 km)
Ceiling: at least 12,000 feet AGL
Clouds: scattered clouds at 2000 feet AGL
Weather: no significant weather observed at this time

METAR text: VOMD 250730Z 36006KT 6000 FEW020 39/21 Q1006 NOSIG
Conditions at: VOMD (MADURAI , IN) observed 0730 UTC 25 June 2019
Temperature: 39.0°C (102°F)
Dewpoint: 21.0°C (70°F) [RH = 36%]
Pressure (altimeter): 29.70 inches Hg (1006.0 mb)
Winds: from the N (360 degrees) at 7 MPH (6 knots; 3.1 m/s)
Visibility: 4 miles ( 6 km)
Ceiling: at least 12,000 feet AGL
Clouds: few clouds at 2000 feet AGL
Weather: no significant weather observed at this time

METAR text: VOMD 250700Z 00000KT 6000 NSC 39/20 Q1006 NOSIG
Conditions at: VOMD (MADURAI , IN) observed 0700 UTC 25 June 2019
Temperature: 39.0°C (102°F)
Dewpoint: 20.0°C (68°F) [RH = 33%]
Pressure (altimeter): 29.70 inches Hg (1006.0 mb)
Winds: calm
Visibility: 4 miles ( 6 km)
Ceiling: at least 12,000 feet AGL
Clouds: sky clear below 12,000 feet AGL
Weather: no significant weather observed at this time

METAR text: VOMD 250630Z 24004KT 6000 NSC 38/20 Q1006 NOSIG
Conditions at: VOMD (MADURAI , IN) observed 0630 UTC 25 June 2019
Temperature: 38.0°C (100°F)
Dewpoint: 20.0°C (68°F) [RH = 35%]
Pressure (altimeter): 29.70 inches Hg (1006.0 mb)
Winds: from the WSW (240 degrees) at 5 MPH (4 knots; 2.1 m/s)
Visibility: 4 miles ( 6 km)
Ceiling: at least 12,000 feet AGL
Clouds: sky clear below 12,000 feet AGL
Weather: no significant weather observed at this time

METAR text: VOMD 250600Z 19004KT 6000 NSC 37/21 Q1007 NOSIG
Conditions at: VOMD (MADURAI , IN) observed 0600 UTC 25 June 2019
Temperature: 37.0°C (99°F)
Dewpoint: 21.0°C (70°F) [RH = 40%]
Pressure (altimeter): 29.73 inches Hg (1007.0 mb)
Winds: from the S (190 degrees) at 5 MPH (4 knots; 2.1 m/s)
Visibility: 4 miles ( 6 km)
Ceiling: at least 12,000 feet AGL
Clouds: sky clear below 12,000 feet AGL
Weather: no significant weather observed at this time

METAR text: VOMD 250530Z 27006KT 6000 NSC 36/21 Q1007 NOSIG
Conditions at: VOMD (MADURAI , IN) observed 0530 UTC 25 June 2019
Temperature: 36.0°C (97°F)
Dewpoint: 21.0°C (70°F) [RH = 42%]
Pressure (altimeter): 29.73 inches Hg (1007.0 mb)
Winds: from the W (270 degrees) at 7 MPH (6 knots; 3.1 m/s)
Visibility: 4 miles ( 6 km)
Ceiling: at least 12,000 feet AGL
Clouds: sky clear below 12,000 feet AGL
Weather: no significant weather observed at this time

METAR text: VOMD 250500Z 27004KT 6000 NSC 35/21 Q1008 NOSIG
Conditions at: VOMD (MADURAI , IN) observed 0500 UTC 25 June 2019
Temperature: 35.0°C (95°F)
Dewpoint: 21.0°C (70°F) [RH = 44%]
Pressure (altimeter): 29.76 inches Hg (1008.0 mb)
Winds: from the W (270 degrees) at 5 MPH (4 knots; 2.1 m/s)
Visibility: 4 miles ( 6 km)
Ceiling: at least 12,000 feet AGL
Clouds: sky clear below 12,000 feet AGL
Weather: no significant weather observed at this time

METAR text: VOMD 250430Z 23003KT 6000 NSC 34/21 Q1008 NOSIG
Conditions at: VOMD (MADURAI , IN) observed 0430 UTC 25 June 2019
Temperature: 34.0°C (93°F)
Dewpoint: 21.0°C (70°F) [RH = 47%]
Pressure (altimeter): 29.76 inches Hg (1008.0 mb)
Winds: from the SW (230 degrees) at 3 MPH (3 knots; 1.5 m/s)
Visibility: 4 miles ( 6 km)
Ceiling: at least 12,000 feet AGL
Clouds: sky clear below 12,000 feet AGL
Weather: no significant weather observed at this time

METAR text: VOMD 250400Z 25005KT 6000 NSC 32/22 Q1008 NOSIG
Conditions at: VOMD (MADURAI , IN) observed 0400 UTC 25 June 2019
Temperature: 32.0°C (90°F)
Dewpoint: 22.0°C (72°F) [RH = 56%]
Pressure (altimeter): 29.76 inches Hg (1008.0 mb)
Winds: from the WSW (250 degrees) at 6 MPH (5 knots; 2.6 m/s)
Visibility: 4 miles ( 6 km)
Ceiling: at least 12,000 feet AGL
Clouds: sky clear below 12,000 feet AGL
Weather: no significant weather observed at this time

METAR text: VOMD 250330Z 26005KT 6000 NSC 31/22 Q1008 NOSIG
Conditions at: VOMD (MADURAI , IN) observed 0330 UTC 25 June 2019
Temperature: 31.0°C (88°F)
Dewpoint: 22.0°C (72°F) [RH = 59%]
Pressure (altimeter): 29.76 inches Hg (1008.0 mb)
Winds: from the W (260 degrees) at 6 MPH (5 knots; 2.6 m/s)
Visibility: 4 miles ( 6 km)
Ceiling: at least 12,000 feet AGL
Clouds: sky clear below 12,000 feet AGL
Weather: no significant weather observed at this time

METAR text: VOMD 250300Z 24002KT 6000 FEW020 30/22 Q1008 NOSIG
Conditions at: VOMD (MADURAI , IN) observed 0300 UTC 25 June 2019
Temperature: 30.0°C (86°F)
Dewpoint: 22.0°C (72°F) [RH = 62%]
Pressure (altimeter): 29.76 inches Hg (1008.0 mb)
Winds: from the WSW (240 degrees) at 2 MPH (2 knots; 1.0 m/s)
Visibility: 4 miles ( 6 km)
Ceiling: at least 12,000 feet AGL
Clouds: few clouds at 2000 feet AGL
Weather: no significant weather observed at this time

METAR text: VOMD 250230Z 23004KT 6000 FEW020 29/22 Q1008 NOSIG
Conditions at: VOMD (MADURAI , IN) observed 0230 UTC 25 June 2019
Temperature: 29.0°C (84°F)
Dewpoint: 22.0°C (72°F) [RH = 66%]
Pressure (altimeter): 29.76 inches Hg (1008.0 mb)
Winds: from the SW (230 degrees) at 5 MPH (4 knots; 2.1 m/s)
Visibility: 4 miles ( 6 km)
Ceiling: at least 12,000 feet AGL
Clouds: few clouds at 2000 feet AGL
Weather: no significant weather observed at this time

METAR text: VOMD 250200Z 00000KT 6000 FEW020 29/22 Q1008 NOSIG
Conditions at: VOMD (MADURAI , IN) observed 0200 UTC 25 June 2019
Temperature: 29.0°C (84°F)
Dewpoint: 22.0°C (72°F) [RH = 66%]
Pressure (altimeter): 29.76 inches Hg (1008.0 mb)
Winds: calm
Visibility: 4 miles ( 6 km)
Ceiling: at least 12,000 feet AGL
Clouds: few clouds at 2000 feet AGL
Weather: no significant weather observed at this time

METAR text: VOMD 250130Z 00000KT 6000 FEW020 28/22 Q1008 NOSIG
Conditions at: VOMD (MADURAI , IN) observed 0130 UTC 25 June 2019
Temperature: 28.0°C (82°F)
Dewpoint: 22.0°C (72°F) [RH = 70%]
Pressure (altimeter): 29.76 inches Hg (1008.0 mb)
Winds: calm
Visibility: 4 miles ( 6 km)
Ceiling: at least 12,000 feet AGL
Clouds: few clouds at 2000 feet AGL
Weather: no significant weather observed at this time

METAR text: VOMD 250100Z 00000KT 6000 FEW020 28/22 Q1007 NOSIG
Conditions at: VOMD (MADURAI , IN) observed 0100 UTC 25 June 2019
Temperature: 28.0°C (82°F)
Dewpoint: 22.0°C (72°F) [RH = 70%]
Pressure (altimeter): 29.73 inches Hg (1007.0 mb)
Winds: calm
Visibility: 4 miles ( 6 km)
Ceiling: at least 12,000 feet AGL
Clouds: few clouds at 2000 feet AGL
Weather: no significant weather observed at this time

METAR text: VOMD 250030Z 36003KT 6000 FEW020 SCT100 28/22 Q1007 NOSIG
Conditions at: VOMD (MADURAI , IN) observed 0030 UTC 25 June 2019
Temperature: 28.0°C (82°F)
Dewpoint: 22.0°C (72°F) [RH = 70%]
Pressure (altimeter): 29.73 inches Hg (1007.0 mb)
Winds: from the N (360 degrees) at 3 MPH (3 knots; 1.5 m/s)
Visibility: 4 miles ( 6 km)
Ceiling: at least 12,000 feet AGL
Clouds: few clouds at 2000 feet AGL
scattered clouds at 10000 feet AGL
Weather: no significant weather observed at this time

METAR text: VOMD 250000Z 36003KT 6000 FEW020 SCT100 28/22 Q1007 NOSIG
Conditions at: VOMD (MADURAI , IN) observed 0000 UTC 25 June 2019
Temperature: 28.0°C (82°F)
Dewpoint: 22.0°C (72°F) [RH = 70%]
Pressure (altimeter): 29.73 inches Hg (1007.0 mb)
Winds: from the N (360 degrees) at 3 MPH (3 knots; 1.5 m/s)
Visibility: 4 miles ( 6 km)
Ceiling: at least 12,000 feet AGL
Clouds: few clouds at 2000 feet AGL
scattered clouds at 10000 feet AGL
Weather: no significant weather observed at this time

METAR text: VOMD 242300Z 33003KT 6000 FEW020 SCT100 28/23 Q1006 NOSIG
Conditions at: VOMD (MADURAI , IN) observed 2300 UTC 24 June 2019
Temperature: 28.0°C (82°F)
Dewpoint: 23.0°C (73°F) [RH = 74%]
Pressure (altimeter): 29.70 inches Hg (1006.0 mb)
Winds: from the NNW (330 degrees) at 3 MPH (3 knots; 1.5 m/s)
Visibility: 4 miles ( 6 km)
Ceiling: at least 12,000 feet AGL
Clouds: few clouds at 2000 feet AGL
scattered clouds at 10000 feet AGL
Weather: no significant weather observed at this time

METAR text: VOMD 242200Z 00000KT 6000 FEW020 SCT100 29/23 Q1006 NOSIG
Conditions at: VOMD (MADURAI , IN) observed 2200 UTC 24 June 2019
Temperature: 29.0°C (84°F)
Dewpoint: 23.0°C (73°F) [RH = 70%]
Pressure (altimeter): 29.70 inches Hg (1006.0 mb)
Winds: calm
Visibility: 4 miles ( 6 km)
Ceiling: at least 12,000 feet AGL
Clouds: few clouds at 2000 feet AGL
scattered clouds at 10000 feet AGL
Weather: no significant weather observed at this time

METAR text: VOMD 242100Z 00000KT 6000 FEW020 SCT100 29/23 Q1006 NOSIG
Conditions at: VOMD (MADURAI , IN) observed 2100 UTC 24 June 2019
Temperature: 29.0°C (84°F)
Dewpoint: 23.0°C (73°F) [RH = 70%]
Pressure (altimeter): 29.70 inches Hg (1006.0 mb)
Winds: calm
Visibility: 4 miles ( 6 km)
Ceiling: at least 12,000 feet AGL
Clouds: few clouds at 2000 feet AGL
scattered clouds at 10000 feet AGL
Weather: no significant weather observed at this time

METAR text: VOMD 242000Z 00000KT 6000 FEW020 SCT100 29/23 Q1006 NOSIG
Conditions at: VOMD (MADURAI , IN) observed 2000 UTC 24 June 2019
Temperature: 29.0°C (84°F)
Dewpoint: 23.0°C (73°F) [RH = 70%]
Pressure (altimeter): 29.70 inches Hg (1006.0 mb)
Winds: calm
Visibility: 4 miles ( 6 km)
Ceiling: at least 12,000 feet AGL
Clouds: few clouds at 2000 feet AGL
scattered clouds at 10000 feet AGL
Weather: no significant weather observed at this time

METAR text: VOMD 241900Z 00000KT 6000 FEW020 SCT100 29/23 Q1006 NOSIG
Conditions at: VOMD (MADURAI , IN) observed 1900 UTC 24 June 2019
Temperature: 29.0°C (84°F)
Dewpoint: 23.0°C (73°F) [RH = 70%]
Pressure (altimeter): 29.70 inches Hg (1006.0 mb)
Winds: calm
Visibility: 4 miles ( 6 km)
Ceiling: at least 12,000 feet AGL
Clouds: few clouds at 2000 feet AGL
scattered clouds at 10000 feet AGL
Weather: no significant weather observed at this time

METAR text: VOMD 241830Z 00000KT 6000 FEW020 SCT100 30/23 Q1007 NOSIG
Conditions at: VOMD (MADURAI , IN) observed 1830 UTC 24 June 2019
Temperature: 30.0°C (86°F)
Dewpoint: 23.0°C (73°F) [RH = 66%]
Pressure (altimeter): 29.73 inches Hg (1007.0 mb)
Winds: calm
Visibility: 4 miles ( 6 km)
Ceiling: at least 12,000 feet AGL
Clouds: few clouds at 2000 feet AGL
scattered clouds at 10000 feet AGL
Weather: no significant weather observed at this time

METAR text: VOMD 241800Z 00000KT 6000 FEW020 SCT100 30/23 Q1007 NOSIG
Conditions at: VOMD (MADURAI , IN) observed 1800 UTC 24 June 2019
Temperature: 30.0°C (86°F)
Dewpoint: 23.0°C (73°F) [RH = 66%]
Pressure (altimeter): 29.73 inches Hg (1007.0 mb)
Winds: calm
Visibility: 4 miles ( 6 km)
Ceiling: at least 12,000 feet AGL
Clouds: few clouds at 2000 feet AGL
scattered clouds at 10000 feet AGL
Weather: no significant weather observed at this time

METAR text: VOMD 241730Z 00000KT 6000 FEW020 FEW025CB SCT100 30/23 Q1007 NOSIG
Conditions at: VOMD (MADURAI , IN) observed 1730 UTC 24 June 2019
Temperature: 30.0°C (86°F)
Dewpoint: 23.0°C (73°F) [RH = 66%]
Pressure (altimeter): 29.73 inches Hg (1007.0 mb)
Winds: calm
Visibility: 4 miles ( 6 km)
Ceiling: at least 12,000 feet AGL
Clouds: few clouds at 2000 feet AGL
few clouds at 2500 feet AGL
scattered clouds at 10000 feet AGL
Weather: no significant weather observed at this time

METAR text: VOMD 241700Z 00000KT 6000 FEW020 FEW025CB SCT100 30/23 Q1007 NOSIG
Conditions at: VOMD (MADURAI , IN) observed 1700 UTC 24 June 2019
Temperature: 30.0°C (86°F)
Dewpoint: 23.0°C (73°F) [RH = 66%]
Pressure (altimeter): 29.73 inches Hg (1007.0 mb)
Winds: calm
Visibility: 4 miles ( 6 km)
Ceiling: at least 12,000 feet AGL
Clouds: few clouds at 2000 feet AGL
few clouds at 2500 feet AGL
scattered clouds at 10000 feet AGL
Weather: no significant weather observed at this time

METAR text: VOMD 241630Z 34003KT 6000 FEW020 FEW025CB SCT100 30/23 Q1007 NOSIG
Conditions at: VOMD (MADURAI , IN) observed 1630 UTC 24 June 2019
Temperature: 30.0°C (86°F)
Dewpoint: 23.0°C (73°F) [RH = 66%]
Pressure (altimeter): 29.73 inches Hg (1007.0 mb)
Winds: from the NNW (340 degrees) at 3 MPH (3 knots; 1.5 m/s)
Visibility: 4 miles ( 6 km)
Ceiling: at least 12,000 feet AGL
Clouds: few clouds at 2000 feet AGL
few clouds at 2500 feet AGL
scattered clouds at 10000 feet AGL
Weather: no significant weather observed at this time

METAR text: VOMD 241600Z 03003KT 6000 FEW020 FEW025CB SCT100 31/23 Q1007 NOSIG
Conditions at: VOMD (MADURAI , IN) observed 1600 UTC 24 June 2019
Temperature: 31.0°C (88°F)
Dewpoint: 23.0°C (73°F) [RH = 63%]
Pressure (altimeter): 29.73 inches Hg (1007.0 mb)
Winds: from the NNE (30 degrees) at 3 MPH (3 knots; 1.5 m/s)
Visibility: 4 miles ( 6 km)
Ceiling: at least 12,000 feet AGL
Clouds: few clouds at 2000 feet AGL
few clouds at 2500 feet AGL
scattered clouds at 10000 feet AGL
Weather: no significant weather observed at this time

METAR text: VOMD 241530Z 00000KT 6000 FEW020 FEW025CB SCT100 31/23 Q1006 NOSIG
Conditions at: VOMD (MADURAI , IN) observed 1530 UTC 24 June 2019
Temperature: 31.0°C (88°F)
Dewpoint: 23.0°C (73°F) [RH = 63%]
Pressure (altimeter): 29.70 inches Hg (1006.0 mb)
Winds: calm
Visibility: 4 miles ( 6 km)
Ceiling: at least 12,000 feet AGL
Clouds: few clouds at 2000 feet AGL
few clouds at 2500 feet AGL
scattered clouds at 10000 feet AGL
Weather: no significant weather observed at this time

METAR text: VOMD 241500Z 00000KT 6000 FEW020 FEW025CB SCT100 31/23 Q1006 NOSIG
Conditions at: VOMD (MADURAI , IN) observed 1500 UTC 24 June 2019
Temperature: 31.0°C (88°F)
Dewpoint: 23.0°C (73°F) [RH = 63%]
Pressure (altimeter): 29.70 inches Hg (1006.0 mb)
Winds: calm
Visibility: 4 miles ( 6 km)
Ceiling: at least 12,000 feet AGL
Clouds: few clouds at 2000 feet AGL
few clouds at 2500 feet AGL
scattered clouds at 10000 feet AGL
Weather: no significant weather observed at this time

METAR text: VOMD 241430Z 00000KT 6000 FEW020 FEW025CB SCT100 31/23 Q1006 NOSIG
Conditions at: VOMD (MADURAI , IN) observed 1430 UTC 24 June 2019
Temperature: 31.0°C (88°F)
Dewpoint: 23.0°C (73°F) [RH = 63%]
Pressure (altimeter): 29.70 inches Hg (1006.0 mb)
Winds: calm
Visibility: 4 miles ( 6 km)
Ceiling: at least 12,000 feet AGL
Clouds: few clouds at 2000 feet AGL
few clouds at 2500 feet AGL
scattered clouds at 10000 feet AGL
Weather: no significant weather observed at this time

METAR text: VOMD 241400Z 03004KT 6000 FEW020 FEW025CB SCT100 32/23 Q1005 NOSIG
Conditions at: VOMD (MADURAI , IN) observed 1400 UTC 24 June 2019
Temperature: 32.0°C (90°F)
Dewpoint: 23.0°C (73°F) [RH = 59%]
Pressure (altimeter): 29.68 inches Hg (1005.0 mb)
Winds: from the NNE (30 degrees) at 5 MPH (4 knots; 2.1 m/s)
Visibility: 4 miles ( 6 km)
Ceiling: at least 12,000 feet AGL
Clouds: few clouds at 2000 feet AGL
few clouds at 2500 feet AGL
scattered clouds at 10000 feet AGL
Weather: no significant weather observed at this time

METAR text: VOMD 241330Z 09014KT 6000 FEW020 FEW025CB SCT100 32/23 Q1005 NOSIG
Conditions at: VOMD (MADURAI , IN) observed 1330 UTC 24 June 2019
Temperature: 32.0°C (90°F)
Dewpoint: 23.0°C (73°F) [RH = 59%]
Pressure (altimeter): 29.68 inches Hg (1005.0 mb)
Winds: from the E (90 degrees) at 16 MPH (14 knots; 7.2 m/s)
Visibility: 4 miles ( 6 km)
Ceiling: at least 12,000 feet AGL
Clouds: few clouds at 2000 feet AGL
few clouds at 2500 feet AGL
scattered clouds at 10000 feet AGL
Weather: no significant weather observed at this time

METAR text: VOMD 241300Z 35005KT 6000 FEW020 FEW025CB SCT100 31/23 Q1004 NOSIG
Conditions at: VOMD (MADURAI , IN) observed 1300 UTC 24 June 2019
Temperature: 31.0°C (88°F)
Dewpoint: 23.0°C (73°F) [RH = 63%]
Pressure (altimeter): 29.65 inches Hg (1004.0 mb)
Winds: from the N (350 degrees) at 6 MPH (5 knots; 2.6 m/s)
Visibility: 4 miles ( 6 km)
Ceiling: at least 12,000 feet AGL
Clouds: few clouds at 2000 feet AGL
few clouds at 2500 feet AGL
scattered clouds at 10000 feet AGL
Weather: no significant weather observed at this time

METAR text: VOMD 241230Z 01007KT 6000 FEW020 FEW025CB SCT100 31/23 Q1004 NOSIG
Conditions at: VOMD (MADURAI , IN) observed 1230 UTC 24 June 2019
Temperature: 31.0°C (88°F)
Dewpoint: 23.0°C (73°F) [RH = 63%]
Pressure (altimeter): 29.65 inches Hg (1004.0 mb)
Winds: from the N (10 degrees) at 8 MPH (7 knots; 3.6 m/s)
Visibility: 4 miles ( 6 km)
Ceiling: at least 12,000 feet AGL
Clouds: few clouds at 2000 feet AGL
few clouds at 2500 feet AGL
scattered clouds at 10000 feet AGL
Weather: no significant weather observed at this time

METAR text: VOMD 241200Z 01004KT 6000 FEW020 FEW025CB SCT100 32/23 Q1003 NOSIG
Conditions at: VOMD (MADURAI , IN) observed 1200 UTC 24 June 2019
Temperature: 32.0°C (90°F)
Dewpoint: 23.0°C (73°F) [RH = 59%]
Pressure (altimeter): 29.62 inches Hg (1003.0 mb)
Winds: from the N (10 degrees) at 5 MPH (4 knots; 2.1 m/s)
Visibility: 4 miles ( 6 km)
Ceiling: at least 12,000 feet AGL
Clouds: few clouds at 2000 feet AGL
few clouds at 2500 feet AGL
scattered clouds at 10000 feet AGL
Weather: no significant weather observed at this time

METAR text: VOMD 241130Z 02008KT 6000 SCT020 FEW025CB 33/23 Q1004 TEMPO 5000 TS
Conditions at: VOMD (MADURAI , IN) observed 1130 UTC 24 June 2019
Temperature: 33.0°C (91°F)
Dewpoint: 23.0°C (73°F) [RH = 56%]
Pressure (altimeter): 29.65 inches Hg (1004.0 mb)
Winds: from the NNE (20 degrees) at 9 MPH (8 knots; 4.1 m/s)
Visibility: 4 miles ( 6 km)
Ceiling: at least 12,000 feet AGL
Clouds: scattered clouds at 2000 feet AGL
few clouds at 2500 feet AGL
Weather: no significant weather observed at this time

METAR text: VOMD 241100Z 34015KT 6000 SCT020 FEW025CB 37/22 Q1003 NOSIG
Conditions at: VOMD (MADURAI , IN) observed 1100 UTC 24 June 2019
Temperature: 37.0°C (99°F)
Dewpoint: 22.0°C (72°F) [RH = 42%]
Pressure (altimeter): 29.62 inches Hg (1003.0 mb)
Winds: from the NNW (340 degrees) at 17 MPH (15 knots; 7.7 m/s)
Visibility: 4 miles ( 6 km)
Ceiling: at least 12,000 feet AGL
Clouds: scattered clouds at 2000 feet AGL
few clouds at 2500 feet AGL
Weather: no significant weather observed at this time

METAR text: VOMD 241030Z 31002KT 6000 FEW020 FEW025TCU 39/23 Q1003 NOSIG
Conditions at: VOMD (MADURAI , IN) observed 1030 UTC 24 June 2019
Temperature: 39.0°C (102°F)
Dewpoint: 23.0°C (73°F) [RH = 40%]
Pressure (altimeter): 29.62 inches Hg (1003.0 mb)
Winds: from the NW (310 degrees) at 2 MPH (2 knots; 1.0 m/s)
Visibility: 4 miles ( 6 km)
Ceiling: at least 12,000 feet AGL
Clouds: few clouds at 2000 feet AGL
few clouds at 2500 feet AGL
Weather: no significant weather observed at this time

METAR text: VOMD 241000Z 32005KT 6000 FEW020 FEW025TCU 40/23 Q1003 NOSIG
Conditions at: VOMD (MADURAI , IN) observed 1000 UTC 24 June 2019
Temperature: 40.0°C (104°F)
Dewpoint: 23.0°C (73°F) [RH = 38%]
Pressure (altimeter): 29.62 inches Hg (1003.0 mb)
Winds: from the NW (320 degrees) at 6 MPH (5 knots; 2.6 m/s)
Visibility: 4 miles ( 6 km)
Ceiling: at least 12,000 feet AGL
Clouds: few clouds at 2000 feet AGL
few clouds at 2500 feet AGL
Weather: no significant weather observed at this time

METAR text: VOMD 240930Z 32004KT 6000 SCT020 40/23 Q1003 NOSIG
Conditions at: VOMD (MADURAI , IN) observed 0930 UTC 24 June 2019
Temperature: 40.0°C (104°F)
Dewpoint: 23.0°C (73°F) [RH = 38%]
Pressure (altimeter): 29.62 inches Hg (1003.0 mb)
Winds: from the NW (320 degrees) at 5 MPH (4 knots; 2.1 m/s)
Visibility: 4 miles ( 6 km)
Ceiling: at least 12,000 feet AGL
Clouds: scattered clouds at 2000 feet AGL
Weather: no significant weather observed at this time

METAR text: VOMD 240900Z 30004KT 6000 SCT020 40/23 Q1003 NOSIG
Conditions at: VOMD (MADURAI , IN) observed 0900 UTC 24 June 2019
Temperature: 40.0°C (104°F)
Dewpoint: 23.0°C (73°F) [RH = 38%]
Pressure (altimeter): 29.62 inches Hg (1003.0 mb)
Winds: from the WNW (300 degrees) at 5 MPH (4 knots; 2.1 m/s)
Visibility: 4 miles ( 6 km)
Ceiling: at least 12,000 feet AGL
Clouds: scattered clouds at 2000 feet AGL
Weather: no significant weather observed at this time

METAR text: VOMD 240830Z 36007KT 6000 SCT020 40/23 Q1004 NOSIG
Conditions at: VOMD (MADURAI , IN) observed 0830 UTC 24 June 2019
Temperature: 40.0°C (104°F)
Dewpoint: 23.0°C (73°F) [RH = 38%]
Pressure (altimeter): 29.65 inches Hg (1004.0 mb)
Winds: from the N (360 degrees) at 8 MPH (7 knots; 3.6 m/s)
Visibility: 4 miles ( 6 km)
Ceiling: at least 12,000 feet AGL
Clouds: scattered clouds at 2000 feet AGL
Weather: no significant weather observed at this time

METAR text: VOMD 240800Z 35005KT 6000 SCT020 40/23 Q1004 NOSIG
Conditions at: VOMD (MADURAI , IN) observed 0800 UTC 24 June 2019
Temperature: 40.0°C (104°F)
Dewpoint: 23.0°C (73°F) [RH = 38%]
Pressure (altimeter): 29.65 inches Hg (1004.0 mb)
Winds: from the N (350 degrees) at 6 MPH (5 knots; 2.6 m/s)
Visibility: 4 miles ( 6 km)
Ceiling: at least 12,000 feet AGL
Clouds: scattered clouds at 2000 feet AGL
Weather: no significant weather observed at this time

METAR text: VOMD 240730Z 32005KT 6000 SCT020 39/22 Q1005 NOSIG
Conditions at: VOMD (MADURAI , IN) observed 0730 UTC 24 June 2019
Temperature: 39.0°C (102°F)
Dewpoint: 22.0°C (72°F) [RH = 38%]
Pressure (altimeter): 29.68 inches Hg (1005.0 mb)
Winds: from the NW (320 degrees) at 6 MPH (5 knots; 2.6 m/s)
Visibility: 4 miles ( 6 km)
Ceiling: at least 12,000 feet AGL
Clouds: scattered clouds at 2000 feet AGL
Weather: no significant weather observed at this time

METAR text: VOMD 240700Z 30006KT 6000 SCT020 39/23 Q1005 NOSIG
Conditions at: VOMD (MADURAI , IN) observed 0700 UTC 24 June 2019
Temperature: 39.0°C (102°F)
Dewpoint: 23.0°C (73°F) [RH = 40%]
Pressure (altimeter): 29.68 inches Hg (1005.0 mb)
Winds: from the WNW (300 degrees) at 7 MPH (6 knots; 3.1 m/s)
Visibility: 4 miles ( 6 km)
Ceiling: at least 12,000 feet AGL
Clouds: scattered clouds at 2000 feet AGL
Weather: no significant weather observed at this time

METAR text: VOMD 240630Z 34004KT 6000 FEW020 38/23 Q1005 NOSIG
Conditions at: VOMD (MADURAI , IN) observed 0630 UTC 24 June 2019
Temperature: 38.0°C (100°F)
Dewpoint: 23.0°C (73°F) [RH = 42%]
Pressure (altimeter): 29.68 inches Hg (1005.0 mb)
Winds: from the NNW (340 degrees) at 5 MPH (4 knots; 2.1 m/s)
Visibility: 4 miles ( 6 km)
Ceiling: at least 12,000 feet AGL
Clouds: few clouds at 2000 feet AGL
Weather: no significant weather observed at this time

METAR text: VOMD 240600Z 31004KT 6000 FEW020 37/23 Q1006 NOSIG
Conditions at: VOMD (MADURAI , IN) observed 0600 UTC 24 June 2019
Temperature: 37.0°C (99°F)
Dewpoint: 23.0°C (73°F) [RH = 45%]
Pressure (altimeter): 29.70 inches Hg (1006.0 mb)
Winds: from the NW (310 degrees) at 5 MPH (4 knots; 2.1 m/s)
Visibility: 4 miles ( 6 km)
Ceiling: at least 12,000 feet AGL
Clouds: few clouds at 2000 feet AGL
Weather: no significant weather observed at this time

METAR text: VOMD 240530Z 32006KT 6000 FEW020 35/22 Q1006 NOSIG
Conditions at: VOMD (MADURAI , IN) observed 0530 UTC 24 June 2019
Temperature: 35.0°C (95°F)
Dewpoint: 22.0°C (72°F) [RH = 47%]
Pressure (altimeter): 29.70 inches Hg (1006.0 mb)
Winds: from the NW (320 degrees) at 7 MPH (6 knots; 3.1 m/s)
Visibility: 4 miles ( 6 km)
Ceiling: at least 12,000 feet AGL
Clouds: few clouds at 2000 feet AGL
Weather: no significant weather observed at this time

METAR text: VOMD 240500Z 27005KT 6000 FEW020 35/22 Q1007 NOSIG
Conditions at: VOMD (MADURAI , IN) observed 0500 UTC 24 June 2019
Temperature: 35.0°C (95°F)
Dewpoint: 22.0°C (72°F) [RH = 47%]
Pressure (altimeter): 29.73 inches Hg (1007.0 mb)
Winds: from the W (270 degrees) at 6 MPH (5 knots; 2.6 m/s)
Visibility: 4 miles ( 6 km)
Ceiling: at least 12,000 feet AGL
Clouds: few clouds at 2000 feet AGL
Weather: no significant weather observed at this time

METAR text: VOMD 240430Z 31004KT 6000 FEW020 34/23 Q1007 NOSIG
Conditions at: VOMD (MADURAI , IN) observed 0430 UTC 24 June 2019
Temperature: 34.0°C (93°F)
Dewpoint: 23.0°C (73°F) [RH = 53%]
Pressure (altimeter): 29.73 inches Hg (1007.0 mb)
Winds: from the NW (310 degrees) at 5 MPH (4 knots; 2.1 m/s)
Visibility: 4 miles ( 6 km)
Ceiling: at least 12,000 feet AGL
Clouds: few clouds at 2000 feet AGL
Weather: no significant weather observed at this time

METAR text: VOMD 240400Z 30007KT 6000 FEW020 34/23 Q1007 NOSIG
Conditions at: VOMD (MADURAI , IN) observed 0400 UTC 24 June 2019
Temperature: 34.0°C (93°F)
Dewpoint: 23.0°C (73°F) [RH = 53%]
Pressure (altimeter): 29.73 inches Hg (1007.0 mb)
Winds: from the WNW (300 degrees) at 8 MPH (7 knots; 3.6 m/s)
Visibility: 4 miles ( 6 km)
Ceiling: at least 12,000 feet AGL
Clouds: few clouds at 2000 feet AGL
Weather: no significant weather observed at this time

METAR text: VOMD 240330Z 30008KT 6000 FEW020 33/23 Q1007 NOSIG
Conditions at: VOMD (MADURAI , IN) observed 0330 UTC 24 June 2019
Temperature: 33.0°C (91°F)
Dewpoint: 23.0°C (73°F) [RH = 56%]
Pressure (altimeter): 29.73 inches Hg (1007.0 mb)
Winds: from the WNW (300 degrees) at 9 MPH (8 knots; 4.1 m/s)
Visibility: 4 miles ( 6 km)
Ceiling: at least 12,000 feet AGL
Clouds: few clouds at 2000 feet AGL
Weather: no significant weather observed at this time

METAR text: VOMD 240300Z 31003KT 6000 FEW020 32/23 Q1007 NOSIG
Conditions at: VOMD (MADURAI , IN) observed 0300 UTC 24 June 2019
Temperature: 32.0°C (90°F)
Dewpoint: 23.0°C (73°F) [RH = 59%]
Pressure (altimeter): 29.73 inches Hg (1007.0 mb)
Winds: from the NW (310 degrees) at 3 MPH (3 knots; 1.5 m/s)
Visibility: 4 miles ( 6 km)
Ceiling: at least 12,000 feet AGL
Clouds: few clouds at 2000 feet AGL
Weather: no significant weather observed at this time

METAR text: VOMD 240230Z 30004KT 6000 FEW020 30/23 Q1007 NOSIG
Conditions at: VOMD (MADURAI , IN) observed 0230 UTC 24 June 2019
Temperature: 30.0°C (86°F)
Dewpoint: 23.0°C (73°F) [RH = 66%]
Pressure (altimeter): 29.73 inches Hg (1007.0 mb)
Winds: from the WNW (300 degrees) at 5 MPH (4 knots; 2.1 m/s)
Visibility: 4 miles ( 6 km)
Ceiling: at least 12,000 feet AGL
Clouds: few clouds at 2000 feet AGL
Weather: no significant weather observed at this time

METAR text: VOMD 240200Z 32004KT 6000 FEW020 29/22 Q1006 NOSIG
Conditions at: VOMD (MADURAI , IN) observed 0200 UTC 24 June 2019
Temperature: 29.0°C (84°F)
Dewpoint: 22.0°C (72°F) [RH = 66%]
Pressure (altimeter): 29.70 inches Hg (1006.0 mb)
Winds: from the NW (320 degrees) at 5 MPH (4 knots; 2.1 m/s)
Visibility: 4 miles ( 6 km)
Ceiling: at least 12,000 feet AGL
Clouds: few clouds at 2000 feet AGL
Weather: no significant weather observed at this time

METAR text: VOMD 240130Z 30004KT 6000 FEW020 28/22 Q1006 NOSIG
Conditions at: VOMD (MADURAI , IN) observed 0130 UTC 24 June 2019
Temperature: 28.0°C (82°F)
Dewpoint: 22.0°C (72°F) [RH = 70%]
Pressure (altimeter): 29.70 inches Hg (1006.0 mb)
Winds: from the WNW (300 degrees) at 5 MPH (4 knots; 2.1 m/s)
Visibility: 4 miles ( 6 km)
Ceiling: at least 12,000 feet AGL
Clouds: few clouds at 2000 feet AGL
Weather: no significant weather observed at this time

METAR text: VOMD 240100Z 33004KT 6000 FEW020 28/22 Q1005 NOSIG
Conditions at: VOMD (MADURAI , IN) observed 0100 UTC 24 June 2019
Temperature: 28.0°C (82°F)
Dewpoint: 22.0°C (72°F) [RH = 70%]
Pressure (altimeter): 29.68 inches Hg (1005.0 mb)
Winds: from the NNW (330 degrees) at 5 MPH (4 knots; 2.1 m/s)
Visibility: 4 miles ( 6 km)
Ceiling: at least 12,000 feet AGL
Clouds: few clouds at 2000 feet AGL
Weather: no significant weather observed at this time

METAR text: VOMD 240030Z 00000KT 6000 FEW020 28/22 Q1005 NOSIG
Conditions at: VOMD (MADURAI , IN) observed 0030 UTC 24 June 2019
Temperature: 28.0°C (82°F)
Dewpoint: 22.0°C (72°F) [RH = 70%]
Pressure (altimeter): 29.68 inches Hg (1005.0 mb)
Winds: calm
Visibility: 4 miles ( 6 km)
Ceiling: at least 12,000 feet AGL
Clouds: few clouds at 2000 feet AGL
Weather: no significant weather observed at this time

METAR text: VOMD 240000Z 00000KT 6000 FEW020 SCT100 28/22 Q1005 NOSIG
Conditions at: VOMD (MADURAI , IN) observed 0000 UTC 24 June 2019
Temperature: 28.0°C (82°F)
Dewpoint: 22.0°C (72°F) [RH = 70%]
Pressure (altimeter): 29.68 inches Hg (1005.0 mb)
Winds: calm
Visibility: 4 miles ( 6 km)
Ceiling: at least 12,000 feet AGL
Clouds: few clouds at 2000 feet AGL
scattered clouds at 10000 feet AGL
Weather: no significant weather observed at this time

Forecast for: VOMD (MADURAI , IN)
Text: TAF VOMD 251100Z 2512/2618 33005KT 6000 FEW020 SCT100
Forecast period: 1200 UTC 25 June 2019 to 1800 UTC 26 June 2019
Forecast type: FROM: standard forecast or significant change
Winds: from the NNW (330 degrees) at 6 MPH (5 knots; 2.6 m/s)
Visibility: 4 miles (6 km)
Ceiling: at least 12,000 feet AGL
Clouds: few clouds at 2000 feet AGL
scattered clouds at 10000 feet AGL
Weather: no significant weather forecast for this period
Text: TEMPO 2512/2518 SCT020 FEW025CB BKN100
Forecast period: 1200 to 1800 UTC 25 June 2019
Forecast type: TEMPORARY: The following changes expected for less than half the time period
Visibility: missing
Ceiling: 10000 feet AGL
Clouds: scattered clouds at 2000 feet AGL
few clouds at 2500 feet AGL
broken clouds at 10000 feet AGL
Weather: no significant weather forecast for this period
Text: TEMPO 2612/2615 SCT020 FEW025CB BKN100
Forecast period: 1200 to 1500 UTC 26 June 2019
Forecast type: TEMPORARY: The following changes expected for less than half the time period
Visibility: missing
Ceiling: 10000 feet AGL
Clouds: scattered clouds at 2000 feet AGL
few clouds at 2500 feet AGL
broken clouds at 10000 feet AGL
Weather: no significant weather forecast for this period